Time;durP1;ratioP1;P1;durP2;ratioP2;P2;SDS_P1;SDS_P2;PMS_P1;PMS_P2;Temp;Humidity;BMP_temperature;BMP_pressure;BME280_temperature;BME280_humidity;BME280_pressure;Samples;Min_cycle;Max_cycle;Signal;HPM_P1;HPM_P2
2022/03/15 00:01:05;;;;;;;24.52;13.48;;;4.50;99.90;;;;;;5095416;28;20051;-60
2022/03/15 00:03:31;;;;;;;29.70;14.65;;;4.50;99.90;;;;;;5095568;28;20043;-60
2022/03/15 00:05:58;;;;;;;22.13;12.40;;;4.40;99.90;;;;;;5095543;28;20405;-60
2022/03/15 00:08:26;;;;;;;23.35;11.73;;;4.40;99.90;;;;;;5095359;28;20101;-60
2022/03/15 00:10:57;;;;;;;33.10;12.23;;;4.30;99.90;;;;;;5095222;28;20093;-60
2022/03/15 00:13:30;;;;;;;21.15;12.20;;;4.20;99.90;;;;;;5095576;28;20039;-60
2022/03/15 00:15:58;;;;;;;23.50;11.77;;;4.30;99.90;;;;;;5095537;28;20367;-60
2022/03/15 00:18:24;;;;;;;43.35;18.77;;;4.20;99.90;;;;;;5095414;28;20474;-60
2022/03/15 00:20:50;;;;;;;45.55;19.00;;;4.20;99.90;;;;;;5095628;28;20097;-60
2022/03/15 00:23:15;;;;;;;47.88;22.60;;;4.20;99.90;;;;;;5095282;28;20035;-60
2022/03/15 00:25:42;;;;;;;34.50;16.00;;;4.30;99.90;;;;;;5095025;28;20036;-61
2022/03/15 00:28:08;;;;;;;33.67;14.05;;;4.30;99.90;;;;;;5095164;28;20457;-61
2022/03/15 00:30:34;;;;;;;32.58;14.45;;;4.20;99.90;;;;;;5095144;28;20072;-59
2022/03/15 00:33:00;;;;;;;30.10;14.38;;;4.30;99.90;;;;;;5095178;28;20102;-60
2022/03/15 00:35:26;;;;;;;39.95;16.15;;;4.20;99.90;;;;;;5094798;28;20059;-60
2022/03/15 00:37:55;;;;;;;32.50;14.43;;;4.30;99.90;;;;;;5094960;28;20036;-60
2022/03/15 00:40:22;;;;;;;37.00;16.08;;;4.30;99.90;;;;;;5094732;28;20035;-60
2022/03/15 00:42:50;;;;;;;34.25;14.23;;;4.30;99.90;;;;;;5094963;28;20135;-60
2022/03/15 00:45:17;;;;;;;33.55;14.27;;;4.20;99.90;;;;;;5094801;28;20120;-60
2022/03/15 00:47:43;;;;;;;30.58;13.40;;;4.20;99.90;;;;;;5094885;28;20359;-60
2022/03/15 00:50:09;;;;;;;27.85;11.50;;;4.30;99.90;;;;;;5094513;28;20084;-60
2022/03/15 00:52:35;;;;;;;19.67;9.77;;;4.20;99.90;;;;;;5094577;28;20413;-60
2022/03/15 00:55:01;;;;;;;22.05;10.48;;;4.20;99.90;;;;;;5094670;28;20119;-60
2022/03/15 00:57:27;;;;;;;16.65;8.82;;;4.20;99.90;;;;;;5094503;28;20036;-60
2022/03/15 00:59:53;;;;;;;22.77;9.20;;;4.20;99.90;;;;;;5094418;28;20043;-60
2022/03/15 01:02:18;;;;;;;25.40;9.10;;;4.30;99.90;;;;;;5094406;28;20040;-61
2022/03/15 01:04:44;;;;;;;20.92;9.68;;;4.40;99.90;;;;;;5094369;28;20115;-61
2022/03/15 01:07:12;;;;;;;22.65;9.93;;;4.40;99.90;;;;;;5094340;28;20063;-60
2022/03/15 01:09:39;;;;;;;28.17;9.93;;;4.40;99.90;;;;;;5094462;28;20063;-60
2022/03/15 01:12:06;;;;;;;18.50;9.18;;;4.40;99.90;;;;;;5093712;28;20085;-60
2022/03/15 01:14:32;;;;;;;20.67;9.75;;;4.40;99.90;;;;;;5094357;28;20046;-60
2022/03/15 01:16:58;;;;;;;16.33;9.27;;;4.40;99.90;;;;;;5094013;28;20111;-60
2022/03/15 01:19:24;;;;;;;19.63;8.82;;;4.30;99.90;;;;;;5094417;28;20043;-61
2022/03/15 01:21:51;;;;;;;21.15;9.50;;;4.40;99.90;;;;;;5093989;28;20111;-60
2022/03/15 01:24:17;;;;;;;15.88;8.98;;;4.20;99.90;;;;;;5094212;28;20428;-60
2022/03/15 01:26:42;;;;;;;18.90;9.38;;;4.30;99.90;;;;;;5094076;28;20036;-60
2022/03/15 01:29:08;;;;;;;16.02;8.32;;;4.30;99.90;;;;;;5094100;28;20036;-60
2022/03/15 01:31:34;;;;;;;16.27;8.43;;;4.30;99.90;;;;;;5093863;28;20044;-61
2022/03/15 01:34:00;;;;;;;15.38;8.27;;;4.20;99.90;;;;;;5093695;28;20035;-60
2022/03/15 01:36:26;;;;;;;22.13;8.80;;;4.20;99.90;;;;;;5093844;28;20048;-60
2022/03/15 01:38:52;;;;;;;17.42;7.88;;;4.20;99.90;;;;;;5093809;28;20093;-60
2022/03/15 01:41:21;;;;;;;20.25;9.60;;;4.20;99.90;;;;;;5091975;28;20513;-60
2022/03/15 01:43:47;;;;;;;19.75;7.50;;;4.30;99.90;;;;;;5093923;28;20051;-60
2022/03/15 01:46:14;;;;;;;15.88;8.20;;;4.20;99.90;;;;;;5093944;28;20051;-60
2022/03/15 01:48:40;;;;;;;21.55;9.45;;;4.20;99.90;;;;;;5093611;28;20044;-60
2022/03/15 01:51:07;;;;;;;19.30;9.02;;;4.30;99.90;;;;;;5092196;28;20040;-60
2022/03/15 01:53:33;;;;;;;20.23;9.20;;;4.30;99.90;;;;;;5093405;28;20535;-60
2022/03/15 01:56:00;;;;;;;19.17;8.63;;;4.30;99.90;;;;;;5093582;28;20402;-60
2022/03/15 01:58:27;;;;;;;16.77;8.70;;;4.30;99.90;;;;;;5093409;28;20044;-60
2022/03/15 02:00:53;;;;;;;19.27;9.23;;;4.30;99.90;;;;;;5093165;28;20489;-60
2022/03/15 02:03:19;;;;;;;17.75;9.13;;;4.30;99.90;;;;;;5093148;28;20039;-60
2022/03/15 02:05:45;;;;;;;22.88;9.68;;;4.30;99.90;;;;;;5093188;28;20081;-61
2022/03/15 02:08:14;;;;;;;17.17;10.05;;;4.30;99.90;;;;;;5092983;28;20442;-60
2022/03/15 02:10:40;;;;;;;20.98;10.82;;;4.30;99.90;;;;;;5093078;28;20048;-60
2022/03/15 02:13:07;;;;;;;23.85;10.30;;;4.30;99.90;;;;;;5093117;28;20058;-60
2022/03/15 02:15:33;;;;;;;22.52;11.13;;;4.40;99.90;;;;;;5092966;28;20032;-60
2022/03/15 02:17:59;;;;;;;22.45;10.77;;;4.40;99.90;;;;;;5092886;28;20032;-60
2022/03/15 02:20:25;;;;;;;24.45;11.23;;;4.40;99.90;;;;;;5092844;28;20475;-60
2022/03/15 02:22:52;;;;;;;21.90;11.02;;;4.40;99.90;;;;;;5090862;28;20455;-60
2022/03/15 02:25:17;;;;;;;20.63;11.90;;;4.40;99.90;;;;;;5092820;28;20075;-60
2022/03/15 02:27:43;;;;;;;20.27;11.98;;;4.50;99.90;;;;;;5092790;28;20082;-60
2022/03/15 02:30:10;;;;;;;25.98;11.00;;;4.50;99.90;;;;;;5092578;28;20482;-60
2022/03/15 02:32:35;;;;;;;24.35;12.20;;;4.50;99.90;;;;;;5092642;28;20040;-60
2022/03/15 02:35:02;;;;;;;20.55;11.50;;;4.50;99.90;;;;;;5092556;28;20044;-60
2022/03/15 02:37:28;;;;;;;21.42;12.07;;;4.60;99.90;;;;;;5092715;28;20050;-60
2022/03/15 02:39:53;;;;;;;26.13;13.90;;;4.60;99.90;;;;;;5092516;28;20464;-60
2022/03/15 02:42:19;;;;;;;22.10;13.48;;;4.70;99.90;;;;;;5092415;28;20035;-60
2022/03/15 02:44:45;;;;;;;24.83;13.73;;;4.70;99.90;;;;;;5092561;28;20122;-59
2022/03/15 02:47:11;;;;;;;25.63;14.40;;;4.70;99.90;;;;;;5092201;28;20036;-60
2022/03/15 02:49:37;;;;;;;26.27;14.48;;;4.70;99.90;;;;;;5092633;28;20070;-60
2022/03/15 02:52:03;;;;;;;27.70;15.07;;;4.80;99.90;;;;;;5092586;28;20478;-60
2022/03/15 02:54:29;;;;;;;25.63;14.15;;;4.80;99.90;;;;;;5092588;28;20549;-60
2022/03/15 02:56:55;;;;;;;28.50;14.50;;;4.80;99.90;;;;;;5092334;28;20043;-60
2022/03/15 02:59:21;;;;;;;29.75;14.55;;;4.90;99.90;;;;;;5092293;28;20043;-60
2022/03/15 03:01:48;;;;;;;28.60;15.52;;;4.90;99.90;;;;;;5092016;28;20043;-60
2022/03/15 03:04:15;;;;;;;25.50;15.07;;;4.90;99.90;;;;;;5092326;28;20130;-60
2022/03/15 03:06:42;;;;;;;26.15;14.32;;;4.90;99.90;;;;;;5092203;28;20051;-61
2022/03/15 03:09:09;;;;;;;30.02;15.25;;;5.00;99.90;;;;;;5090732;28;20040;-61
2022/03/15 03:11:34;;;;;;;29.60;14.77;;;5.10;99.90;;;;;;5092093;28;20043;-61
2022/03/15 03:14:00;;;;;;;27.17;15.45;;;5.10;99.90;;;;;;5092059;28;20032;-61
2022/03/15 03:16:29;;;;;;;24.15;14.98;;;5.10;99.90;;;;;;5091974;28;20040;-61
2022/03/15 03:18:57;;;;;;;29.07;16.00;;;5.10;99.90;;;;;;5092203;28;20129;-61
2022/03/15 03:21:28;;;;;;;29.50;15.82;;;5.10;99.90;;;;;;5091878;28;20403;-61
2022/03/15 03:23:55;;;;;;;27.25;14.27;;;5.20;99.90;;;;;;5092269;28;20081;-61
2022/03/15 03:26:24;;;;;;;32.38;14.68;;;5.30;99.90;;;;;;5092294;28;20461;-60
2022/03/15 03:28:51;;;;;;;28.08;15.43;;;5.30;99.90;;;;;;5091764;28;20039;-60
2022/03/15 03:31:16;;;;;;;30.88;15.00;;;5.30;99.90;;;;;;5091643;28;20040;-60
2022/03/15 03:33:43;;;;;;;35.38;15.30;;;5.40;99.90;;;;;;5091123;28;20040;-60
2022/03/15 03:36:09;;;;;;;25.50;14.80;;;5.40;99.90;;;;;;5098540;28;20093;-60
2022/03/15 03:38:36;;;;;;;29.13;14.45;;;5.40;99.90;;;;;;5098737;28;20083;-60
2022/03/15 03:41:03;;;;;;;26.83;15.00;;;5.40;99.90;;;;;;5098770;28;20146;-60
2022/03/15 03:43:29;;;;;;;26.63;14.57;;;5.40;99.90;;;;;;5098690;28;20090;-60
2022/03/15 03:45:56;;;;;;;25.95;13.50;;;5.40;99.90;;;;;;5098556;28;20040;-60
2022/03/15 03:48:23;;;;;;;29.05;14.48;;;5.50;99.90;;;;;;5098817;28;20436;-60
2022/03/15 03:50:50;;;;;;;30.42;14.52;;;5.40;99.90;;;;;;5098650;28;20044;-60
2022/03/15 03:53:17;;;;;;;29.40;13.80;;;5.50;99.90;;;;;;5098626;28;20780;-60
2022/03/15 03:55:44;;;;;;;28.73;13.40;;;5.50;99.90;;;;;;5098438;28;20040;-60
2022/03/15 03:58:11;;;;;;;29.52;13.82;;;5.50;99.90;;;;;;5098308;28;20032;-60
2022/03/15 04:00:37;;;;;;;26.27;13.35;;;5.50;99.90;;;;;;5098365;28;20077;-60
2022/03/15 04:03:03;;;;;;;27.25;13.45;;;5.70;99.90;;;;;;5098404;28;20072;-60
2022/03/15 04:05:36;;;;;;;28.98;13.88;;;5.70;99.90;;;;;;5098163;28;20482;-60
2022/03/15 04:08:02;;;;;;;25.50;13.18;;;5.70;99.90;;;;;;5098290;28;20040;-60
2022/03/15 04:10:30;;;;;;;34.90;13.73;;;5.70;99.90;;;;;;5098025;28;20398;-60
2022/03/15 04:12:55;;;;;;;27.77;12.77;;;5.80;99.90;;;;;;5098133;28;20470;-60
2022/03/15 04:15:22;;;;;;;26.95;13.02;;;5.80;99.90;;;;;;5098204;28;20042;-60
2022/03/15 04:17:48;;;;;;;24.33;12.75;;;5.80;99.90;;;;;;5098306;28;20051;-60
2022/03/15 04:20:14;;;;;;;28.92;13.18;;;5.80;99.90;;;;;;5098488;28;20079;-60
2022/03/15 04:22:40;;;;;;;26.77;13.55;;;5.80;99.90;;;;;;5098227;28;20364;-61
2022/03/15 04:25:07;;;;;;;33.70;13.52;;;5.80;99.90;;;;;;5098035;28;20120;-61
2022/03/15 04:27:32;;;;;;;27.08;13.07;;;5.90;99.90;;;;;;5098191;28;20067;-61
2022/03/15 04:29:58;;;;;;;21.20;12.52;;;6.00;99.90;;;;;;5098190;28;20486;-61
2022/03/15 04:32:24;;;;;;;26.15;13.93;;;6.00;99.90;;;;;;5097978;28;20517;-61
2022/03/15 04:34:50;;;;;;;28.83;12.88;;;6.00;99.90;;;;;;5097991;28;20056;-61
2022/03/15 04:37:16;;;;;;;22.33;12.20;;;6.10;99.90;;;;;;5097880;28;20379;-60
2022/03/15 04:39:41;;;;;;;28.10;12.55;;;6.10;99.90;;;;;;5097942;28;20040;-62
2022/03/15 04:42:07;;;;;;;23.20;12.32;;;6.10;99.90;;;;;;5097883;28;20233;-61
2022/03/15 04:44:33;;;;;;;25.48;14.00;;;6.10;99.90;;;;;;5098121;28;20119;-61
2022/03/15 04:46:59;;;;;;;22.52;12.77;;;6.10;99.90;;;;;;5094295;28;20123;-60
2022/03/15 04:49:25;;;;;;;32.00;13.40;;;6.10;99.90;;;;;;5094653;28;20039;-62
2022/03/15 04:51:50;;;;;;;26.77;12.52;;;6.10;99.90;;;;;;5094648;28;20044;-61
2022/03/15 04:54:16;;;;;;;25.95;12.48;;;6.10;99.90;;;;;;5094563;28;20090;-61
2022/03/15 04:56:43;;;;;;;27.73;12.05;;;6.00;99.90;;;;;;5094903;28;20382;-61
2022/03/15 04:59:08;;;;;;;26.25;11.65;;;6.10;99.90;;;;;;5094371;28;20042;-60
2022/03/15 05:01:34;;;;;;;24.70;12.20;;;6.10;99.90;;;;;;5094568;28;20040;-61
2022/03/15 05:04:00;;;;;;;27.60;13.23;;;6.10;99.90;;;;;;5094483;28;20075;-60
2022/03/15 05:06:26;;;;;;;29.17;12.98;;;6.10;99.90;;;;;;5092949;28;20052;-60
2022/03/15 05:08:52;;;;;;;25.42;12.57;;;6.10;99.90;;;;;;5094326;28;20086;-61
2022/03/15 05:11:18;;;;;;;22.10;12.02;;;6.10;99.90;;;;;;5094059;28;20051;-61
2022/03/15 05:13:46;;;;;;;30.17;14.57;;;6.10;99.90;;;;;;5094171;28;20043;-61
2022/03/15 05:16:22;;;;;;;29.80;13.85;;;6.10;99.90;;;;;;5094347;28;20394;-61
2022/03/15 05:18:52;;;;;;;24.92;13.50;;;6.10;99.90;;;;;;5094339;28;20068;-61
2022/03/15 05:21:18;;;;;;;28.42;13.65;;;6.20;99.90;;;;;;5094047;28;20165;-62
2022/03/15 05:23:45;;;;;;;26.40;12.75;;;6.20;99.90;;;;;;5092772;28;20051;-61
2022/03/15 05:26:11;;;;;;;31.63;14.73;;;6.20;99.90;;;;;;5093021;28;20075;-61
2022/03/15 05:28:37;;;;;;;30.00;15.05;;;6.20;99.90;;;;;;5092883;28;20464;-61
2022/03/15 05:31:02;;;;;;;27.17;14.70;;;6.20;99.90;;;;;;5093754;28;20124;-61
2022/03/15 05:33:28;;;;;;;31.13;15.48;;;6.20;99.90;;;;;;5093959;28;20107;-61
2022/03/15 05:35:54;;;;;;;32.53;15.63;;;6.20;99.90;;;;;;5093435;28;20456;-61
2022/03/15 05:38:20;;;;;;;30.15;16.08;;;6.20;99.90;;;;;;5094074;28;20028;-60
2022/03/15 05:40:46;;;;;;;29.55;16.05;;;6.20;99.90;;;;;;5093786;28;20557;-60
2022/03/15 05:43:12;;;;;;;29.70;15.55;;;6.20;99.90;;;;;;5093990;28;20401;-61
2022/03/15 05:45:38;;;;;;;30.42;15.95;;;6.20;99.90;;;;;;5093685;28;20865;-61
2022/03/15 05:48:04;;;;;;;28.35;15.63;;;6.20;99.90;;;;;;5093791;28;20048;-61
2022/03/15 05:50:30;;;;;;;31.10;17.23;;;6.20;99.90;;;;;;5093408;28;20044;-61
2022/03/15 05:52:56;;;;;;;34.55;17.13;;;6.20;99.90;;;;;;5093390;28;20082;-61
2022/03/15 05:55:22;;;;;;;30.88;16.73;;;6.20;99.90;;;;;;5093502;28;20051;-61
2022/03/15 05:57:47;;;;;;;33.88;17.80;;;6.20;99.90;;;;;;5092196;28;20039;-61
2022/03/15 06:00:14;;;;;;;30.98;18.30;;;6.20;99.90;;;;;;5093341;28;20058;-61
2022/03/15 06:02:40;;;;;;;39.45;18.17;;;6.20;99.90;;;;;;5093202;28;20082;-61
2022/03/15 06:05:07;;;;;;;33.15;17.38;;;6.20;99.90;;;;;;5093136;28;20047;-60
2022/03/15 06:07:33;;;;;;;34.83;17.25;;;6.20;99.90;;;;;;5093048;28;20048;-61
2022/03/15 06:09:58;;;;;;;37.97;17.85;;;6.10;99.90;;;;;;5093192;28;20046;-61
2022/03/15 06:12:25;;;;;;;32.88;17.67;;;6.20;99.90;;;;;;5091625;28;20177;-60
2022/03/15 06:14:52;;;;;;;46.10;21.15;;;6.20;99.90;;;;;;5092970;28;20047;-60
2022/03/15 06:17:18;;;;;;;40.17;20.83;;;6.20;99.90;;;;;;5092968;28;20418;-60
2022/03/15 06:19:44;;;;;;;34.22;19.08;;;6.30;99.90;;;;;;5093233;28;20386;-61
2022/03/15 06:22:10;;;;;;;31.00;17.63;;;6.20;99.90;;;;;;5092712;28;20040;-59
2022/03/15 06:24:36;;;;;;;33.47;17.77;;;6.20;99.90;;;;;;5092961;28;20036;-61
2022/03/15 06:27:03;;;;;;;32.20;17.77;;;6.20;99.90;;;;;;5092810;28;20044;-60
2022/03/15 06:29:30;;;;;;;36.40;17.13;;;6.20;99.90;;;;;;5092946;28;20039;-60
2022/03/15 06:31:56;;;;;;;37.13;18.10;;;6.20;99.90;;;;;;5092642;28;20047;-60
2022/03/15 06:34:22;;;;;;;35.40;17.95;;;6.30;99.90;;;;;;5091064;28;20403;-62
2022/03/15 06:36:48;;;;;;;35.42;18.50;;;6.20;99.90;;;;;;5092767;28;20049;-60
2022/03/15 06:39:13;;;;;;;36.15;19.65;;;6.30;99.90;;;;;;5092693;28;20443;-60
2022/03/15 06:41:41;;;;;;;32.55;18.58;;;6.30;99.90;;;;;;5092850;28;20051;-60
2022/03/15 06:44:08;;;;;;;32.13;17.38;;;6.30;99.90;;;;;;5092457;28;20043;-60
2022/03/15 06:46:34;;;;;;;36.28;18.50;;;6.30;99.90;;;;;;5092391;28;20070;-60
2022/03/15 06:49:00;;;;;;;28.80;19.08;;;6.30;99.90;;;;;;5092475;28;20130;-60
2022/03/15 06:51:27;;;;;;;35.10;19.00;;;6.30;99.90;;;;;;5092834;28;20442;-60
2022/03/15 06:53:53;;;;;;;40.50;20.20;;;6.30;99.90;;;;;;5092499;28;20039;-61
2022/03/15 06:56:20;;;;;;;36.63;19.33;;;6.40;99.90;;;;;;5092468;28;20032;-61
2022/03/15 06:58:46;;;;;;;30.45;20.23;;;6.30;99.90;;;;;;5092450;28;20094;-60
2022/03/15 07:01:11;;;;;;;33.72;19.25;;;6.30;99.90;;;;;;5092248;28;20366;-63
2022/03/15 07:03:37;;;;;;;35.10;20.00;;;6.40;99.90;;;;;;5092110;28;20161;-60
2022/03/15 07:06:03;;;;;;;41.30;19.83;;;6.40;99.90;;;;;;5092265;28;20081;-61
2022/03/15 07:08:29;;;;;;;44.78;20.20;;;6.40;99.90;;;;;;5091717;28;20079;-60
2022/03/15 07:10:55;;;;;;;37.03;19.48;;;6.50;99.90;;;;;;5091692;28;20058;-60
2022/03/15 07:13:21;;;;;;;45.75;22.05;;;6.50;99.90;;;;;;5091983;28;20032;-60
2022/03/15 07:15:49;;;;;;;35.42;21.30;;;6.50;99.90;;;;;;5092322;28;20036;-61
2022/03/15 07:18:21;;;;;;;44.28;22.73;;;6.50;99.90;;;;;;5091901;28;20047;-60
2022/03/15 07:20:47;;;;;;;45.92;22.55;;;6.60;99.90;;;;;;5091929;28;20037;-61
2022/03/15 07:23:13;;;;;;;42.40;21.70;;;6.60;99.90;;;;;;5091825;28;20425;-62
2022/03/15 07:25:38;;;;;;;43.85;22.25;;;6.60;99.90;;;;;;5091863;28;20042;-60
2022/03/15 07:28:04;;;;;;;38.83;23.23;;;6.70;99.90;;;;;;5091784;28;20111;-60
2022/03/15 07:30:30;;;;;;;40.67;22.48;;;6.70;99.90;;;;;;5091603;28;20091;-61
2022/03/15 07:32:55;;;;;;;36.60;22.50;;;6.70;99.90;;;;;;5090537;28;20504;-61
2022/03/15 07:35:22;;;;;;;37.13;21.15;;;6.70;99.90;;;;;;5091512;28;20126;-59
2022/03/15 07:37:53;;;;;;;47.13;23.70;;;6.80;99.90;;;;;;5090269;28;20040;-60
2022/03/15 07:40:19;;;;;;;42.63;22.30;;;6.80;99.90;;;;;;5091690;28;20053;-59
2022/03/15 07:42:46;;;;;;;35.97;22.30;;;6.90;99.90;;;;;;5091623;28;20094;-59
2022/03/15 07:45:12;;;;;;;37.95;22.60;;;6.90;99.90;;;;;;5091414;28;20055;-60
2022/03/15 07:47:38;;;;;;;41.22;23.58;;;6.90;99.90;;;;;;5091882;28;20054;-59
2022/03/15 07:50:04;;;;;;;40.03;22.35;;;6.90;99.90;;;;;;5091576;28;20039;-59
2022/03/15 07:52:30;;;;;;;44.08;24.48;;;6.90;99.90;;;;;;5091611;28;20036;-59
2022/03/15 07:54:56;;;;;;;42.88;23.77;;;7.00;99.90;;;;;;5091582;28;20040;-59
2022/03/15 07:57:21;;;;;;;45.47;23.95;;;7.00;99.90;;;;;;5091421;28;20063;-59
2022/03/15 07:59:47;;;;;;;41.83;23.75;;;7.00;99.90;;;;;;5091394;28;20032;-59
2022/03/15 08:02:15;;;;;;;46.75;24.80;;;7.10;99.90;;;;;;5091407;28;20043;-60
2022/03/15 08:04:41;;;;;;;39.28;23.35;;;7.00;99.90;;;;;;5091443;28;20044;-61
2022/03/15 08:07:07;;;;;;;42.60;23.40;;;7.10;99.90;;;;;;5091629;28;20036;-60
2022/03/15 08:09:33;;;;;;;42.92;24.00;;;7.10;99.90;;;;;;5091412;28;20555;-60
2022/03/15 08:11:58;;;;;;;40.65;23.55;;;7.20;99.90;;;;;;5091338;28;20076;-60
2022/03/15 08:14:24;;;;;;;41.40;22.52;;;7.20;99.90;;;;;;5091444;28;20513;-60
2022/03/15 08:16:50;;;;;;;44.92;23.90;;;7.20;99.90;;;;;;5091797;28;20325;-60
2022/03/15 08:19:15;;;;;;;43.50;23.13;;;7.30;99.90;;;;;;5091431;28;20032;-60
2022/03/15 08:21:41;;;;;;;44.22;23.60;;;7.30;99.90;;;;;;5091594;28;20047;-60
2022/03/15 08:24:07;;;;;;;43.97;22.95;;;7.30;99.90;;;;;;5095162;28;20044;-60
2022/03/15 08:26:32;;;;;;;35.45;22.38;;;7.30;99.90;;;;;;5095139;28;20036;-59
2022/03/15 08:28:58;;;;;;;39.72;22.13;;;7.40;99.90;;;;;;5094981;28;20051;-60
2022/03/15 08:31:24;;;;;;;37.63;21.45;;;7.40;99.90;;;;;;5093276;28;20079;-60
2022/03/15 08:33:49;;;;;;;39.28;22.00;;;7.50;99.90;;;;;;5094991;28;20058;-60
2022/03/15 08:36:15;;;;;;;40.40;22.48;;;7.50;99.90;;;;;;5094672;28;20054;-60
2022/03/15 08:38:41;;;;;;;41.85;22.45;;;7.50;99.90;;;;;;5094891;28;20067;-60
2022/03/15 08:41:08;;;;;;;39.38;22.63;;;7.50;99.90;;;;;;5094738;28;20032;-60
2022/03/15 08:43:34;;;;;;;39.13;21.48;;;7.50;99.90;;;;;;5094680;28;20044;-60
2022/03/15 08:46:00;;;;;;;38.55;22.33;;;7.50;99.90;;;;;;5094977;28;20055;-61
2022/03/15 08:48:25;;;;;;;35.72;22.13;;;7.50;99.90;;;;;;5094758;28;20036;-60
2022/03/15 08:50:51;;;;;;;33.40;22.10;;;7.50;99.90;;;;;;5092870;28;20626;-61
2022/03/15 08:53:17;;;;;;;35.58;20.67;;;7.50;99.90;;;;;;5094505;28;20486;-61
2022/03/15 08:55:43;;;;;;;34.70;22.45;;;7.60;99.90;;;;;;5094571;28;20028;-60
2022/03/15 08:58:09;;;;;;;35.08;21.13;;;7.60;99.90;;;;;;5094601;28;20036;-60
2022/03/15 09:00:35;;;;;;;38.75;22.20;;;7.60;99.90;;;;;;5093410;28;20075;-61
2022/03/15 09:03:01;;;;;;;34.95;22.58;;;7.70;99.90;;;;;;5094557;28;20070;-61
2022/03/15 09:05:26;;;;;;;36.78;21.70;;;7.70;99.90;;;;;;5094537;28;20098;-61
2022/03/15 09:07:53;;;;;;;33.58;21.15;;;7.70;99.90;;;;;;5094336;28;20522;-61
2022/03/15 09:10:23;;;;;;;37.28;21.33;;;7.80;99.90;;;;;;5094173;28;20494;-61
2022/03/15 09:12:50;;;;;;;33.90;21.48;;;7.90;99.90;;;;;;5094111;28;20500;-61
2022/03/15 09:15:16;;;;;;;31.40;21.08;;;7.90;99.90;;;;;;5094675;28;20447;-61
2022/03/15 09:17:42;;;;;;;36.33;22.63;;;8.00;99.90;;;;;;5094164;28;20119;-60
2022/03/15 09:20:09;;;;;;;37.45;21.85;;;8.00;99.90;;;;;;5094202;28;20032;-60
2022/03/15 09:22:35;;;;;;;40.08;21.75;;;8.10;99.90;;;;;;5094020;28;20442;-61
2022/03/15 09:25:02;;;;;;;35.92;22.02;;;8.10;99.90;;;;;;5093842;28;20482;-60
2022/03/15 09:27:27;;;;;;;36.53;21.80;;;8.20;99.90;;;;;;5093952;28;20036;-61
2022/03/15 09:29:54;;;;;;;32.17;22.40;;;8.20;99.90;;;;;;5092135;28;20051;-61
2022/03/15 09:32:20;;;;;;;33.83;21.75;;;8.30;99.90;;;;;;5093231;28;20376;-60
2022/03/15 09:34:46;;;;;;;32.00;22.70;;;8.30;99.90;;;;;;5093559;28;20051;-61
2022/03/15 09:37:13;;;;;;;32.00;21.67;;;8.30;99.90;;;;;;5093782;28;20123;-60
2022/03/15 09:39:39;;;;;;;38.25;22.08;;;8.40;99.90;;;;;;5093655;28;20040;-60
2022/03/15 09:42:07;;;;;;;30.85;22.10;;;8.40;99.90;;;;;;5093563;28;20040;-60
2022/03/15 09:44:35;;;;;;;35.57;21.47;;;8.50;99.90;;;;;;5093564;28;20043;-60
2022/03/15 09:47:04;;;;;;;37.20;22.40;;;8.50;99.90;;;;;;5093711;28;20340;-61
2022/03/15 09:49:31;;;;;;;35.70;22.40;;;8.50;99.90;;;;;;5093485;28;20270;-61
2022/03/15 09:51:57;;;;;;;38.08;22.80;;;8.60;99.90;;;;;;5093408;28;20506;-61
2022/03/15 09:54:25;;;;;;;34.05;22.95;;;8.60;99.90;;;;;;5093407;28;20082;-61
2022/03/15 09:56:51;;;;;;;31.90;21.30;;;8.60;99.90;;;;;;5093645;28;20089;-62
2022/03/15 09:59:19;;;;;;;36.83;22.00;;;8.80;99.90;;;;;;5093356;28;20459;-61
2022/03/15 10:01:50;;;;;;;30.65;21.77;;;8.80;99.90;;;;;;5093278;28;20036;-61
2022/03/15 10:11:38;;;;;;;31.25;21.10;;;9.20;99.90;;;;;;5093427;28;20152;-61
2022/03/15 10:14:04;;;;;;;34.28;21.55;;;9.40;99.90;;;;;;5093360;28;20051;-61
2022/03/15 10:16:41;;;;;;;32.47;20.52;;;9.50;99.90;;;;;;5091601;28;20036;-61
2022/03/15 10:19:12;;;;;;;33.50;20.92;;;9.50;99.90;;;;;;5091932;28;20482;-61
2022/03/15 10:21:53;;;;;;;30.00;19.63;;;9.60;99.90;;;;;;5091730;28;20046;-61
2022/03/15 10:24:27;;;;;;;32.65;21.27;;;9.70;99.90;;;;;;5092745;28;20671;-61
2022/03/15 10:26:55;;;;;;;28.98;21.00;;;9.70;99.90;;;;;;5092842;28;20048;-61
2022/03/15 10:29:23;;;;;;;30.60;20.58;;;9.80;99.90;;;;;;5092698;28;20096;-61
2022/03/15 10:31:51;;;;;;;28.55;20.42;;;9.80;99.90;;;;;;5074428;28;20508;-59
2022/03/15 10:34:17;;;;;;;33.35;21.52;;;9.90;99.90;;;;;;5092450;28;20482;-59
2022/03/15 10:36:45;;;;;;;31.98;19.65;;;9.90;99.90;;;;;;5092616;28;20055;-59
2022/03/15 10:39:15;;;;;;;33.10;20.15;;;9.90;99.90;;;;;;5091280;28;20505;-59
2022/03/15 10:41:46;;;;;;;28.65;19.80;;;10.00;99.90;;;;;;5092572;28;20039;-59
2022/03/15 10:44:20;;;;;;;27.38;18.52;;;10.00;99.90;;;;;;5091970;28;20090;-58
2022/03/15 10:47:00;;;;;;;28.60;20.05;;;10.10;99.90;;;;;;5092349;28;20483;-60
2022/03/15 10:49:25;;;;;;;32.67;19.65;;;10.00;99.90;;;;;;5091554;28;20052;-60
2022/03/15 10:51:51;;;;;;;26.98;18.25;;;10.00;99.90;;;;;;5092289;28;20085;-60
2022/03/15 10:54:17;;;;;;;28.85;19.50;;;10.10;99.90;;;;;;5092339;28;20116;-59
2022/03/15 10:56:55;;;;;;;30.98;19.65;;;10.00;99.90;;;;;;5092683;28;20064;-59
2022/03/15 10:59:22;;;;;;;28.30;17.88;;;10.10;99.90;;;;;;5092304;28;20443;-60
2022/03/15 11:01:48;;;;;;;29.10;18.58;;;10.00;99.90;;;;;;5092183;28;20040;-60
2022/03/15 11:04:16;;;;;;;25.15;19.02;;;10.00;99.90;;;;;;5091977;28;20047;-61
2022/03/15 11:06:45;;;;;;;27.13;18.23;;;10.00;99.90;;;;;;5092194;28;20036;-60
2022/03/15 11:09:32;;;;;;;25.60;18.33;;;9.90;99.90;;;;;;5091975;28;20044;-60
2022/03/15 11:12:04;;;;;;;31.23;17.75;;;9.90;99.90;;;;;;5092073;28;20087;-61
2022/03/15 11:14:40;;;;;;;31.40;18.83;;;9.90;99.90;;;;;;5091847;28;20553;-60
2022/03/15 11:17:34;;;;;;;25.40;18.45;;;9.90;99.90;;;;;;5092018;28;20047;-59
2022/03/15 11:20:02;;;;;;;28.35;18.60;;;9.90;99.90;;;;;;5089481;28;20123;-60
2022/03/15 11:22:30;;;;;;;30.15;19.40;;;9.90;99.90;;;;;;5092071;28;20071;-61
2022/03/15 11:25:05;;;;;;;29.92;18.45;;;9.80;99.90;;;;;;5092005;28;20051;-61
2022/03/15 11:27:33;;;;;;;27.23;19.10;;;9.80;99.90;;;;;;5091877;28;20040;-60
2022/03/15 11:30:06;;;;;;;30.38;21.95;;;9.60;99.90;;;;;;5091802;28;20032;-62
2022/03/15 11:32:36;;;;;;;29.70;19.20;;;9.70;99.90;;;;;;5091535;28;20111;-61
2022/03/15 11:35:04;;;;;;;30.70;20.42;;;9.60;99.90;;;;;;5090249;28;20063;-60
2022/03/15 11:37:30;;;;;;;25.10;18.23;;;9.60;99.90;;;;;;5091881;28;20118;-62
2022/03/15 11:39:58;;;;;;;28.33;17.63;;;9.60;99.90;;;;;;5091740;28;20051;-62
2022/03/15 11:42:26;;;;;;;26.92;17.02;;;9.60;99.90;;;;;;5091555;28;20054;-61
2022/03/15 11:45:19;;;;;;;25.95;17.50;;;9.60;99.90;;;;;;5091542;28;20050;-61
2022/03/15 11:48:10;;;;;;;28.77;17.95;;;9.70;99.90;;;;;;5091782;28;20036;-61
2022/03/15 11:50:58;;;;;;;33.85;18.30;;;9.60;99.90;;;;;;5091458;28;20040;-61
2022/03/15 11:53:42;;;;;;;25.60;17.45;;;9.60;99.90;;;;;;5091696;28;20040;-61
2022/03/15 11:56:51;;;;;;;25.70;17.13;;;9.50;99.90;;;;;;5093887;28;20047;-61
2022/03/15 11:59:16;;;;;;;31.02;17.75;;;9.40;99.90;;;;;;5095409;28;20091;-61
2022/03/15 12:01:47;;;;;;;23.70;17.42;;;9.40;99.90;;;;;;5095502;28;20075;-61
2022/03/15 12:04:15;;;;;;;27.02;18.55;;;9.50;99.90;;;;;;5095467;28;20054;-62
2022/03/15 12:06:54;;;;;;;29.60;19.37;;;9.50;99.90;;;;;;5095742;28;20048;-61
2022/03/15 12:09:25;;;;;;;31.40;20.35;;;9.50;99.90;;;;;;5094417;28;20270;-61
2022/03/15 12:12:05;;;;;;;30.42;19.65;;;9.50;99.90;;;;;;5095225;28;20051;-61
2022/03/15 12:14:39;;;;;;;32.40;21.02;;;9.60;99.90;;;;;;5095521;28;20042;-60
2022/03/15 12:17:06;;;;;;;30.73;19.77;;;9.60;99.90;;;;;;5095178;28;20042;-61
2022/03/15 12:19:49;;;;;;;28.60;20.05;;;9.70;99.90;;;;;;5095335;28;20064;-61
2022/03/15 12:22:26;;;;;;;35.13;20.95;;;9.70;99.90;;;;;;5095061;28;20035;-61
2022/03/15 12:25:03;;;;;;;30.65;19.30;;;9.80;99.90;;;;;;5093799;28;20044;-61
2022/03/15 12:27:30;;;;;;;24.17;19.40;;;9.90;99.90;;;;;;5095277;28;20043;-61
2022/03/15 12:30:00;;;;;;;30.30;19.20;;;9.90;99.90;;;;;;5095078;28;20036;-61
2022/03/15 12:32:26;;;;;;;29.20;18.92;;;9.90;99.90;;;;;;5093736;28;20126;-62
2022/03/15 12:34:56;;;;;;;33.13;19.95;;;10.00;99.90;;;;;;5094490;28;20424;-61
2022/03/15 12:37:36;;;;;;;30.25;19.67;;;10.20;99.90;;;;;;5093685;28;20044;-61
2022/03/15 12:40:06;;;;;;;29.25;19.02;;;10.30;99.90;;;;;;5094249;28;20086;-61
2022/03/15 12:42:33;;;;;;;28.38;16.70;;;10.40;99.90;;;;;;5094892;28;20076;-61
2022/03/15 12:45:01;;;;;;;27.63;18.13;;;10.40;99.90;;;;;;5094745;28;20075;-61
2022/03/15 12:47:30;;;;;;;26.77;17.63;;;10.50;99.90;;;;;;5094569;28;20040;-62